createdAt,value
2023-05-21T00:02:48.528Z,9.85
2023-05-21T00:05:17.202Z,10.57
2023-05-21T00:07:44.531Z,9.57
2023-05-21T00:10:11.434Z,10.13
2023-05-21T00:12:37.998Z,10.98
2023-05-21T00:19:57.802Z,9.68
2023-05-21T00:24:50.958Z,10.52
2023-05-21T00:27:17.576Z,10.02
2023-05-21T00:32:11.342Z,10.30
2023-05-21T00:34:38.418Z,11.55
2023-05-21T00:37:05.112Z,11.45
2023-05-21T00:39:31.705Z,11.77
2023-05-21T00:44:25.657Z,11.48
2023-05-21T00:46:56.695Z,11.23
2023-05-21T00:49:24.641Z,10.65
2023-05-21T00:51:52.063Z,12.45
2023-05-21T00:54:19.112Z,11.88
2023-05-21T00:56:46.732Z,13.35
2023-05-21T00:59:15.982Z,12.48
2023-05-21T01:01:45.941Z,12.15
2023-05-21T01:04:12.635Z,11.88
2023-05-21T01:06:39.185Z,12.55
2023-05-21T01:11:43.072Z,11.50
2023-05-21T01:14:13.259Z,11.48
2023-05-21T01:16:42.443Z,11.75
2023-05-21T01:19:14.244Z,12.23
2023-05-21T01:21:44.917Z,12.30
2023-05-21T01:24:11.464Z,12.98
2023-05-21T01:29:06.734Z,11.25
2023-05-21T01:31:45.676Z,12.60
2023-05-21T01:34:16.482Z,12.23
2023-05-21T01:36:53.719Z,11.30
2023-05-21T01:39:27.856Z,12.45
2023-05-21T01:41:56.360Z,12.63
2023-05-21T01:44:25.607Z,12.07
2023-05-21T01:46:54.628Z,12.40
2023-05-21T01:49:22.351Z,12.65
2023-05-21T01:51:52.228Z,13.18
2023-05-21T01:54:18.821Z,13.48
2023-05-21T01:56:46.192Z,12.00
2023-05-21T01:59:12.873Z,12.75
2023-05-21T02:01:39.515Z,12.20
2023-05-21T02:04:06.251Z,12.88
2023-05-21T02:06:32.813Z,12.43
2023-05-21T02:11:26.948Z,11.82
2023-05-21T02:13:54.608Z,12.45
2023-05-21T02:16:22.554Z,13.43
2023-05-21T02:18:53.868Z,12.93
2023-05-21T02:21:20.843Z,12.70
2023-05-21T02:23:47.425Z,12.80
2023-05-21T02:28:40.624Z,12.13
2023-05-21T02:31:07.229Z,11.88
2023-05-21T02:36:00.420Z,12.25
2023-05-21T02:40:53.661Z,11.45
2023-05-21T02:43:20.369Z,11.23
2023-05-21T02:45:47.030Z,12.23
2023-05-21T02:48:13.688Z,11.88
2023-05-21T02:50:40.354Z,11.43
2023-05-21T02:55:34.106Z,10.93
2023-05-21T02:58:00.768Z,11.07
2023-05-21T03:02:53.848Z,11.52
2023-05-21T03:05:20.861Z,12.38
2023-05-21T03:07:47.490Z,12.95
2023-05-21T03:12:40.740Z,12.48
2023-05-21T03:15:07.764Z,12.27
2023-05-21T03:17:34.335Z,11.20
2023-05-21T03:22:27.392Z,12.30
2023-05-21T03:27:20.612Z,11.85
2023-05-21T03:29:47.214Z,11.88
2023-05-21T03:34:40.809Z,10.77
2023-05-21T03:39:33.867Z,11.70
2023-05-21T03:44:26.986Z,10.45
2023-05-21T03:49:20.901Z,10.80
2023-05-21T03:51:47.462Z,10.73
2023-05-21T03:56:40.704Z,10.15
2023-05-21T03:59:07.253Z,10.50
2023-05-21T04:01:33.917Z,10.65
2023-05-21T04:06:28.168Z,10.07
2023-05-21T04:08:54.717Z,9.77
2023-05-21T04:13:48.268Z,9.38
2023-05-21T04:16:19.507Z,9.60
2023-05-21T04:18:47.189Z,10.05
2023-05-21T04:21:14.150Z,9.70
2023-05-21T04:23:40.784Z,9.68
2023-05-21T04:26:07.991Z,10.05
2023-05-21T04:28:35.559Z,11.10
2023-05-21T04:31:02.431Z,9.95
2023-05-21T04:33:29.092Z,9.63
2023-05-21T04:35:55.686Z,10.30
2023-05-21T04:40:52.379Z,10.63
2023-05-21T04:43:25.851Z,10.52
2023-05-21T04:45:55.026Z,10.20
2023-05-21T04:48:24.918Z,10.15
2023-05-21T04:50:53.639Z,10.95
2023-05-21T04:53:20.817Z,10.35
2023-05-21T04:55:47.449Z,11.15
2023-05-21T05:00:42.362Z,10.70
2023-05-21T05:03:09.171Z,10.90
2023-05-21T05:05:35.897Z,10.85
2023-05-21T05:08:02.795Z,11.32
2023-05-21T05:10:29.490Z,10.15
2023-05-21T05:12:56.170Z,10.80
2023-05-21T05:15:22.732Z,11.07
2023-05-21T05:20:17.255Z,10.45
2023-05-21T05:25:10.376Z,10.65
2023-05-21T05:30:05.896Z,10.32
2023-05-21T05:32:32.490Z,10.65
2023-05-21T05:37:28.691Z,9.75
2023-05-21T05:39:55.352Z,9.55
2023-05-21T05:42:21.910Z,11.27
2023-05-21T05:47:16.119Z,10.05
2023-05-21T05:49:42.742Z,10.02
2023-05-21T05:52:09.311Z,10.02
2023-05-21T05:57:02.419Z,8.88
2023-05-21T05:59:28.984Z,9.02
2023-05-21T06:04:22.201Z,8.85
2023-05-21T06:06:48.779Z,9.18
2023-05-21T06:11:41.923Z,9.23
2023-05-21T06:14:08.552Z,8.52
2023-05-21T06:16:35.230Z,8.90
2023-05-21T06:19:01.924Z,9.57
2023-05-21T06:21:29.139Z,9.10
2023-05-21T06:23:55.700Z,9.52
2023-05-21T06:28:49.422Z,8.90
2023-05-21T06:31:16.501Z,9.95
2023-05-21T06:33:43.150Z,9.55
2023-05-21T06:36:09.906Z,9.38
2023-05-21T06:38:36.461Z,9.40
2023-05-21T06:41:04.269Z,8.70
2023-05-21T06:43:30.918Z,9.13
2023-05-21T06:46:00.276Z,8.75
2023-05-21T06:48:27.354Z,9.93
2023-05-21T06:50:54.071Z,9.60
2023-05-21T06:53:22.163Z,9.27
2023-05-21T06:55:49.294Z,10.23
2023-05-21T06:58:16.684Z,9.52
2023-05-21T07:00:43.237Z,10.13
2023-05-21T07:03:09.957Z,9.00
2023-05-21T07:05:36.982Z,10.20
2023-05-21T07:08:03.794Z,8.93
2023-05-21T07:10:30.619Z,9.38
2023-05-21T07:12:57.271Z,9.45
2023-05-21T07:15:23.875Z,9.32
2023-05-21T07:17:50.514Z,9.32
2023-05-21T07:20:17.239Z,10.43
2023-05-21T07:22:43.905Z,10.00
2023-05-21T07:25:10.644Z,10.05
2023-05-21T07:27:37.326Z,8.88
2023-05-21T07:30:04.426Z,9.30
2023-05-21T07:32:31.065Z,10.07
2023-05-21T07:35:02.049Z,8.82
2023-05-21T07:37:28.852Z,10.20
2023-05-21T07:39:57.453Z,9.07
2023-05-21T07:42:24.255Z,8.90
2023-05-21T07:44:54.298Z,9.25
2023-05-21T07:47:26.789Z,9.55
2023-05-21T07:49:56.237Z,9.15
2023-05-21T07:52:23.090Z,9.02
2023-05-21T07:54:57.340Z,9.52
2023-05-21T07:57:24.074Z,9.25
2023-05-21T07:59:51.548Z,9.80
2023-05-21T08:02:18.172Z,9.15
2023-05-21T08:04:44.862Z,9.52
2023-05-21T08:07:15.299Z,9.20
2023-05-21T08:09:41.893Z,9.20
2023-05-21T08:12:08.562Z,9.38
2023-05-21T08:14:35.152Z,9.43
2023-05-21T08:17:01.784Z,8.93
2023-05-21T08:19:30.054Z,9.32
2023-05-21T08:21:56.840Z,10.13
2023-05-21T08:24:24.299Z,9.63
2023-05-21T08:26:57.402Z,9.38
2023-05-21T08:29:24.067Z,10.00
2023-05-21T08:31:50.749Z,9.30
2023-05-21T08:34:18.715Z,8.65
2023-05-21T08:36:46.358Z,10.40
2023-05-21T08:39:13.410Z,9.50
2023-05-21T08:41:40.592Z,10.27
2023-05-21T08:44:12.134Z,9.30
2023-05-21T08:46:41.047Z,8.90
2023-05-21T08:49:12.782Z,8.40
2023-05-21T08:51:39.726Z,9.30
2023-05-21T08:54:07.331Z,9.95
2023-05-21T08:56:34.823Z,9.82
2023-05-21T08:59:02.832Z,9.27
2023-05-21T09:01:32.223Z,8.60
2023-05-21T09:04:12.161Z,9.13
2023-05-21T09:06:47.035Z,9.18
2023-05-21T09:09:34.036Z,8.85
2023-05-21T09:12:01.103Z,9.13
2023-05-21T09:14:28.505Z,9.93
2023-05-21T09:16:55.223Z,9.63
2023-05-21T09:19:22.628Z,9.30
2023-05-21T09:21:53.750Z,9.43
2023-05-21T09:24:23.146Z,9.27
2023-05-21T09:26:49.942Z,8.57
2023-05-21T09:29:16.582Z,8.90
2023-05-21T09:31:46.588Z,9.55
2023-05-21T09:34:19.467Z,9.77
2023-05-21T09:36:47.210Z,9.93
2023-05-21T09:39:28.023Z,9.80
2023-05-21T09:41:57.292Z,9.88
2023-05-21T09:44:24.419Z,9.60
2023-05-21T09:46:51.436Z,9.60
2023-05-21T09:49:26.634Z,8.98
2023-05-21T09:51:59.599Z,9.93
2023-05-21T09:56:57.765Z,10.32
2023-05-21T09:59:24.517Z,9.45
2023-05-21T10:01:53.028Z,10.35
2023-05-21T10:04:25.462Z,10.27
2023-05-21T10:06:52.928Z,9.90
2023-05-21T10:09:20.591Z,10.23
2023-05-21T10:11:49.651Z,10.40
2023-05-21T10:14:25.655Z,10.98
2023-05-21T10:16:54.353Z,9.70
2023-05-21T10:19:22.721Z,9.48
2023-05-21T10:21:51.953Z,9.88
2023-05-21T10:24:19.388Z,10.77
2023-05-21T10:26:49.553Z,11.82
2023-05-21T10:29:19.394Z,11.27
2023-05-21T10:31:50.252Z,11.30
2023-05-21T10:34:17.592Z,10.38
2023-05-21T10:36:45.227Z,10.52
2023-05-21T10:39:15.847Z,11.02
2023-05-21T10:42:38.022Z,11.02
2023-05-21T10:45:31.843Z,10.27
2023-05-21T10:48:34.063Z,10.48
2023-05-21T10:51:13.201Z,10.68
2023-05-21T10:53:46.754Z,11.82
2023-05-21T10:56:22.504Z,10.55
2023-05-21T10:59:22.525Z,9.85
2023-05-21T11:01:53.182Z,10.77
2023-05-21T11:04:27.158Z,10.55
2023-05-21T11:07:00.337Z,11.00
2023-05-21T11:09:30.867Z,10.50
2023-05-21T11:12:01.669Z,10.38
2023-05-21T11:14:43.677Z,11.43
2023-05-21T11:17:16.553Z,10.95
2023-05-21T11:19:53.009Z,10.70
2023-05-21T11:22:36.295Z,10.98
2023-05-21T11:25:06.781Z,11.23
2023-05-21T11:27:40.347Z,9.45
2023-05-21T11:37:25.726Z,10.27
2023-05-21T11:39:52.921Z,10.95
2023-05-21T11:46:14.365Z,10.70
2023-05-21T11:48:42.526Z,10.48
2023-05-21T11:51:12.208Z,10.77
2023-05-21T11:53:39.480Z,10.00
2023-05-21T11:56:09.958Z,9.77
2023-05-21T11:58:36.550Z,9.75
2023-05-21T12:01:03.330Z,9.68
2023-05-21T12:03:35.207Z,9.98
2023-05-21T12:06:06.817Z,10.35
2023-05-21T12:08:33.775Z,9.35
2023-05-21T12:11:01.982Z,9.95
2023-05-21T12:13:29.037Z,9.38
2023-05-21T12:15:55.878Z,9.23
2023-05-21T12:18:23.406Z,9.82
2023-05-21T12:20:52.265Z,9.63
2023-05-21T12:23:21.087Z,10.13
2023-05-21T12:25:47.671Z,9.43
2023-05-21T12:28:15.468Z,9.43
2023-05-21T12:30:43.411Z,10.05
2023-05-21T12:33:12.341Z,10.50
2023-05-21T12:35:40.640Z,9.93
2023-05-21T12:38:10.725Z,9.73
2023-05-21T12:40:38.999Z,9.15
2023-05-21T12:43:06.585Z,9.13
2023-05-21T12:45:34.110Z,9.98
2023-05-21T12:48:03.848Z,10.25
2023-05-21T12:50:30.769Z,9.70
2023-05-21T12:52:58.561Z,10.50
2023-05-21T12:55:29.063Z,9.32
2023-05-21T12:58:06.273Z,10.00
2023-05-21T13:00:33.604Z,9.98
2023-05-21T13:03:02.083Z,8.95
2023-05-21T13:05:29.272Z,10.70
2023-05-21T13:07:55.968Z,9.90
2023-05-21T13:10:22.803Z,10.38
2023-05-21T13:12:49.492Z,10.60
2023-05-21T13:15:16.601Z,9.55
2023-05-21T13:17:43.358Z,11.50
2023-05-21T13:20:17.039Z,10.43
2023-05-21T13:22:47.257Z,9.88
2023-05-21T13:25:16.954Z,9.43
2023-05-21T13:27:45.110Z,8.57
2023-05-21T13:30:12.299Z,9.57
2023-05-21T13:32:40.726Z,9.48
2023-05-21T13:35:07.892Z,9.35
2023-05-21T13:37:37.951Z,10.43
2023-05-21T13:40:06.543Z,9.82
2023-05-21T13:42:34.462Z,10.07
2023-05-21T13:45:01.450Z,10.07
2023-05-21T13:47:28.351Z,9.93
2023-05-21T13:49:55.121Z,9.32
2023-05-21T13:52:21.963Z,9.40
2023-05-21T13:54:49.131Z,10.25
2023-05-21T13:57:16.123Z,9.63
2023-05-21T13:59:42.915Z,9.27
2023-05-21T14:02:10.587Z,9.75
2023-05-21T14:04:39.241Z,9.02
2023-05-21T14:07:07.206Z,9.95
2023-05-21T14:09:34.703Z,8.82
2023-05-21T14:12:01.847Z,9.63
2023-05-21T14:14:28.664Z,9.93
2023-05-21T14:16:55.562Z,9.70
2023-05-21T14:19:23.587Z,9.43
2023-05-21T14:21:53.593Z,9.07
2023-05-21T14:24:20.592Z,9.07
2023-05-21T14:26:47.361Z,9.93
2023-05-21T14:29:14.474Z,9.75
2023-05-21T14:31:41.475Z,8.65
2023-05-21T14:34:09.199Z,9.82
2023-05-21T14:36:36.609Z,9.95
2023-05-21T14:39:03.752Z,9.80
2023-05-21T14:41:30.499Z,10.65
2023-05-21T14:43:57.645Z,10.02
2023-05-21T14:46:24.653Z,9.32
2023-05-21T14:48:51.545Z,10.73
2023-05-21T14:51:18.509Z,9.05
2023-05-21T14:53:45.184Z,9.60
2023-05-21T14:56:11.893Z,10.18
2023-05-21T14:58:38.587Z,10.18
2023-05-21T15:01:05.653Z,10.05
2023-05-21T15:03:32.423Z,9.43
2023-05-21T15:05:59.276Z,9.40
2023-05-21T15:08:26.114Z,10.00
2023-05-21T15:10:52.847Z,10.63
2023-05-21T15:13:19.674Z,10.45
2023-05-21T15:15:46.444Z,9.57
2023-05-21T15:18:13.182Z,9.93
2023-05-21T15:20:39.914Z,10.07
2023-05-21T15:23:16.772Z,11.27
2023-05-21T15:25:44.498Z,9.27
2023-05-21T15:28:12.469Z,9.40
2023-05-21T15:30:39.836Z,9.55
2023-05-21T15:33:06.932Z,9.60
2023-05-21T15:35:35.547Z,9.18
2023-05-21T15:38:05.879Z,8.90
2023-05-21T15:40:32.698Z,9.48
2023-05-21T15:42:59.753Z,9.55
2023-05-21T15:45:26.514Z,9.30
2023-05-21T15:47:53.487Z,9.90
2023-05-21T15:50:23.095Z,9.77
2023-05-21T15:52:52.304Z,9.65
2023-05-21T15:55:20.222Z,9.45
2023-05-21T15:57:47.427Z,9.65
2023-05-21T16:00:14.533Z,10.23
2023-05-21T16:02:42.236Z,9.82
2023-05-21T16:05:09.464Z,9.38
2023-05-21T16:07:38.122Z,9.75
2023-05-21T16:10:06.495Z,9.63
2023-05-21T16:12:33.965Z,10.73
2023-05-21T16:15:00.888Z,9.52
2023-05-21T16:17:27.714Z,10.30
2023-05-21T16:30:37.721Z,8.15
2023-05-21T16:39:06.237Z,10.50
2023-05-21T16:45:00.459Z,8.38
2023-05-21T17:05:19.854Z,8.95
2023-05-21T17:07:29.855Z,7.70
2023-05-21T17:09:56.570Z,7.47
2023-05-21T17:12:23.889Z,7.32
2023-05-21T17:14:52.284Z,6.40
2023-05-21T17:17:19.091Z,7.32
2023-05-21T17:19:45.817Z,6.55
2023-05-21T17:22:12.737Z,6.60
2023-05-21T17:25:27.975Z,7.32
2023-05-21T17:33:58.703Z,8.63
2023-05-21T17:37:01.764Z,8.93
2023-05-21T17:40:22.054Z,9.15
2023-05-21T17:45:09.882Z,8.75
2023-05-21T17:57:36.175Z,10.05
2023-05-21T18:00:06.884Z,10.30
2023-05-21T18:02:33.735Z,10.05
2023-05-21T18:05:00.597Z,9.70
2023-05-21T18:07:27.329Z,11.63
2023-05-21T18:09:54.034Z,10.60
2023-05-21T18:12:20.741Z,12.32
2023-05-21T18:14:47.702Z,12.20
2023-05-21T18:17:14.473Z,11.98
2023-05-21T18:19:41.194Z,12.13
2023-05-21T18:22:08.271Z,11.98
2023-05-21T18:24:36.788Z,12.38
2023-05-21T18:27:03.890Z,12.75
2023-05-21T18:29:30.607Z,13.75
2023-05-21T18:31:57.503Z,13.68
2023-05-21T18:34:24.306Z,12.60
2023-05-21T18:36:51.008Z,12.25
2023-05-21T18:39:17.745Z,11.80
2023-05-21T18:41:44.707Z,11.38
2023-05-21T18:44:11.636Z,11.52
2023-05-21T18:46:38.479Z,11.73
2023-05-21T18:49:05.619Z,11.48
2023-05-21T18:51:32.785Z,11.95
2023-05-21T18:53:59.525Z,11.68
2023-05-21T18:56:26.247Z,11.70
2023-05-21T18:58:52.983Z,11.77
2023-05-21T19:01:20.118Z,10.98
2023-05-21T19:03:46.928Z,10.77
2023-05-21T19:06:13.937Z,11.57
2023-05-21T19:08:41.661Z,10.50
2023-05-21T19:11:08.573Z,10.48
2023-05-21T19:13:35.918Z,10.43
2023-05-21T19:16:02.786Z,11.02
2023-05-21T19:18:31.948Z,10.13
2023-05-21T19:21:00.885Z,10.65
2023-05-21T19:23:35.730Z,10.90
2023-05-21T19:27:32.825Z,11.02
2023-05-21T19:34:13.985Z,10.57
2023-05-21T20:02:32.643Z,11.27
2023-05-21T20:08:04.552Z,11.65
2023-05-21T20:10:31.278Z,12.35
2023-05-21T20:12:57.945Z,11.55
2023-05-21T20:15:24.629Z,11.32
2023-05-21T20:17:51.304Z,11.88
2023-05-21T20:20:19.154Z,11.77
2023-05-21T20:22:46.155Z,11.45
2023-05-21T20:25:43.888Z,11.45
2023-05-21T20:28:55.208Z,12.15
2023-05-21T20:31:25.599Z,10.88
2023-05-21T20:34:17.447Z,11.35
2023-05-21T20:37:02.884Z,10.88
2023-05-21T20:45:50.851Z,10.65
2023-05-21T20:48:55.105Z,11.48
2023-05-21T20:54:25.227Z,10.57
2023-05-21T20:56:54.958Z,11.00
2023-05-21T20:59:21.576Z,10.15
2023-05-21T21:01:48.196Z,10.45
2023-05-21T21:04:14.798Z,10.93
2023-05-21T21:06:41.334Z,10.95
2023-05-21T21:09:08.675Z,9.48
2023-05-21T21:11:35.217Z,9.73
2023-05-21T21:14:02.767Z,11.10
2023-05-21T21:16:29.416Z,10.85
2023-05-21T21:18:56.198Z,11.32
2023-05-21T21:21:22.853Z,11.02
2023-05-21T21:23:49.486Z,10.70
2023-05-21T21:26:17.234Z,11.20
2023-05-21T21:28:45.430Z,11.43
2023-05-21T21:31:13.222Z,10.50
2023-05-21T21:33:39.807Z,12.23
2023-05-21T21:36:06.679Z,11.18
2023-05-21T21:38:33.232Z,11.30
2023-05-21T21:40:59.791Z,11.88
2023-05-21T21:43:26.381Z,11.68
2023-05-21T21:45:53.016Z,12.15
2023-05-21T21:48:19.598Z,12.73
2023-05-21T21:50:46.155Z,12.38
2023-05-21T21:53:14.149Z,12.77
2023-05-21T21:55:40.743Z,12.48
2023-05-21T21:58:07.276Z,13.05
2023-05-21T22:00:33.851Z,12.48
2023-05-21T22:03:00.756Z,12.55
2023-05-21T22:05:30.755Z,13.00
2023-05-21T22:07:57.327Z,14.25
2023-05-21T22:10:23.863Z,13.23
2023-05-21T22:12:50.445Z,14.70
2023-05-21T22:15:24.457Z,14.07
2023-05-21T22:17:52.144Z,14.55
2023-05-21T22:20:19.220Z,14.55
2023-05-21T22:22:46.364Z,15.52
2023-05-21T22:25:12.943Z,15.88
2023-05-21T22:27:40.329Z,15.18
2023-05-21T22:30:08.161Z,16.35
2023-05-21T22:32:34.872Z,15.10
2023-05-21T22:35:02.586Z,16.35
2023-05-21T22:37:29.204Z,14.85
2023-05-21T22:39:55.780Z,15.85
2023-05-21T22:42:22.405Z,15.73
2023-05-21T22:44:48.993Z,15.30
2023-05-21T22:47:16.322Z,15.10
2023-05-21T22:49:45.685Z,15.60
2023-05-21T22:52:12.247Z,15.13
2023-05-21T22:54:38.829Z,15.52
2023-05-21T22:57:05.713Z,16.17
2023-05-21T22:59:33.110Z,15.65
2023-05-21T23:01:59.814Z,16.33
2023-05-21T23:04:42.645Z,15.18
2023-05-21T23:07:10.280Z,16.02
2023-05-21T23:09:36.855Z,15.68
2023-05-21T23:12:03.729Z,16.42
2023-05-21T23:14:30.322Z,16.25
2023-05-21T23:17:02.157Z,16.05
2023-05-21T23:19:29.606Z,16.10
2023-05-21T23:21:56.483Z,16.35
2023-05-21T23:24:23.345Z,17.02
2023-05-21T23:26:50.048Z,16.45
2023-05-21T23:29:16.657Z,16.98
2023-05-21T23:31:43.775Z,17.70
2023-05-21T23:34:10.801Z,16.35
2023-05-21T23:36:37.414Z,15.93
2023-05-21T23:39:04.018Z,16.58
2023-05-21T23:41:34.161Z,19.02
2023-05-21T23:44:00.862Z,18.25
2023-05-21T23:46:27.532Z,18.27
2023-05-21T23:48:54.215Z,18.27
2023-05-21T23:51:21.584Z,18.23
2023-05-21T23:53:48.222Z,17.27
2023-05-21T23:56:15.079Z,18.42
2023-05-21T23:58:41.741Z,18.95
